Great Smoky Mtns National Park, NC

4:49 AM EDT on November 01, 2014 (GMT -0400)
Asheville Middle School | Change Station
CLOSE
Current Station
Personal Weather Station
Location: Asheville, NC
Elevation: 2139 ft
Nearby Weather Stations

Elev 2139 ft 35.59 °N, 82.56 °W | Updated 6 minutes ago

Snow
Snow
29.3 °F
Feels Like 25 °F
N
3.7
Wind Variable Wind from NW

Today
High -- | Low -- °F
--% Chance of Precip.
Yesterday
High -- | Low -- °F
Precip. -- in
7:52 AM 6:34 PM
Waxing Gibbous, 64% visible
Pressure 29.78 in
Visibility 1.2 miles
Clouds Scattered Clouds 500 ft
Overcast 800 ft
Windchill 25 °F
Dew Point 28 °F
Humidity 93%
Rainfall 0.00 in
Snow Depth Not available.
UV 0 out of 12
Pollen 1.30 out of 12
Air Quality Not available.
Flu Activity Not available.
METAR KAVL 010754Z AUTO 34019G29KT 1 1/4SM -SN BR SCT005 OVC008 00/M01 A2978 RMK AO2 PK WND 33029/0751 SLP082 P0005 T00001011

More Conditions Fewer Conditions

Pressure 29.78 in
Visibility 1.2 miles
Clouds Scattered Clouds 500 ft
Overcast 800 ft
Windchill 25 °F
Dew Point 28 °F
Humidity 93%
Rainfall 0.00 in
Snow Depth Not available.
UV 0 out of 12
Pollen 1.30 out of 12
Air Quality Not available.
Flu Activity Not available.
METAR KAVL 010754Z AUTO 34019G29KT 1 1/4SM -SN BR SCT005 OVC008 00/M01 A2978 RMK AO2 PK WND 33029/0751 SLP082 P0005 T00001011

More Conditions Fewer Conditions

10-Day Weather Forecast

Almanac

Astronomy

Nov. 01, 2014 Rise Set
Actual Time
Civil Twilight
Nautical Twilight
Astronomical Twilight
Moon
Length of Visible Light
Length of Day
Tomorrow will be .
, % of the Moon is Illuminated

Today's Extremes

State Highs State Lows

Community

WunderPhotos

Upload Photos

1,766,871 photos uploaded!

WunderBlogs® & News

Nearby

Air Quality

  Air Quality AQ Index Pollutant
Not available.

Snow Depth

Station Depth Elevation

Earthquake Activity

City Distance Mag. Time & Date
Minimum magnitude displayed is 2.5.

Coastal Water Temperatures

Place Temperature

Nearby Weather Stations